Jerome, Illinois
Current Conditions -  °F | °C
As of 3:52 AM on Saturday 25 Oct 2014 (Local Time) from KSPI Reporting Station
Clear Clear  
Wind Chill: 54°   Ceiling: Unl
Heat Index: 54°   Visibility: 10mi
Dew Point: 51°   Wind: 3mph
Humidity: 90%   Direction: NA
Pressure: 29.96"   Gusts: NA
Location:  39.7725°N, 89.6857°W
Report Text: KSPI 250852Z AUTO VRB03KT 10SM CLR 12/11 A2996 RMK AO2 SLP142 T01220106 58002
Loading
Personal Weather Stations






























Interactive Weather Map
Tropical Storm Tracking
New forecast layout! Learn more

10-Day Weather Forecast

Advertisements
Track Severe Weather on mobile